Pos First Name Last Name YOB Country Start
Num
Time Run T1 Swim T2 Run
1 Alicja Ulatowska 1996 POL 92 00:33:10 n/a n/a 00:13:44 00:01:08 00:18:18
2 Zsanett Bragmayer 1994 HUN 77 00:33:15 n/a n/a 00:13:43 00:01:05 00:18:29
3 Itzel Arroyo Aquino 1998 MEX 93 00:33:28 n/a n/a 00:14:35 00:01:17 00:17:37
4 Bianca Seregni 2000 ITA 112 00:33:33 n/a n/a 00:13:50 00:01:23 00:18:22
5 Eva Daniels 2001 LUX 114 00:33:36 n/a n/a 00:14:37 00:01:04 00:17:55
6 Kseniia Levkovska 1989 AZE 84 00:33:36 n/a n/a 00:14:36 00:01:14 00:17:46
7 Antoanela Manac 1995 ROU 73 00:33:44 n/a n/a 00:14:39 00:01:07 00:18:00
8 Margaryta Krylova 1994 UKR 71 00:33:46 n/a n/a 00:14:17 00:01:16 00:18:14
9 Márta Kropkó 2003 HUN 122 00:33:49 n/a n/a 00:13:49 00:01:18 00:18:44
10 Julie Iemmolo 1999 FRA 98 00:34:11 n/a n/a 00:14:07 00:01:10 00:18:54
11 Delia Sclabas 2000 SUI 111 00:34:15 n/a n/a 00:16:36 00:01:29 00:16:12
12 Sara Guerrero Manso 1997 ESP 99 00:34:34 n/a n/a 00:14:37 00:01:06 00:18:53
13 Iria Rodriguez 1999 ESP 95 00:34:40 n/a n/a 00:14:39 00:01:15 00:18:47
14 Silke De Wolde 2001 NED 120 00:34:48 n/a n/a 00:14:41 00:01:10 00:18:57
15 Sofiya Pryyma 1998 UKR 91 00:34:51 n/a n/a 00:14:52 00:01:19 00:18:41
16 Valentyna Molchanets 1996 UKR 102 00:35:08 n/a n/a 00:14:43 00:01:13 00:19:12
17 Clara Aulinas Prat 2001 ESP 119 00:35:12 n/a n/a 00:14:11 00:01:11 00:19:51
18 Rebeccah Wassner 1975 USA 82 00:35:16 n/a n/a 00:14:58 00:01:36 00:18:44
19 Laurel Wassner 1975 USA 81 00:35:26 n/a n/a 00:15:06 00:01:31 00:18:49
20 Claudia Perez Pay 1999 ESP 94 00:35:49 n/a n/a 00:14:19 00:01:16 00:20:14
21 Jasmine Eden Gray 2001 AUS 115 00:35:59 n/a n/a 00:15:01 00:01:10 00:19:48
22 Eva Cornelisse 1997 NED 100 00:36:07 n/a n/a 00:14:58 00:01:15 00:19:55
23 Ana Ramos 1995 POR 80 00:36:28 n/a n/a 00:14:40 00:01:10 00:20:39
24 Senia Celine 1995 FRA 74 00:36:30 n/a n/a 00:15:01 00:01:15 00:20:15
25 Klaudia Skibiak 2002 POL 116 00:36:35 n/a n/a 00:14:15 00:01:30 00:20:51
26 Monika Dobrovolska 2000 UKR 113 00:36:35 n/a n/a 00:15:15 00:01:16 00:20:04
27 Tania Álvarez 1999 ESP 97 00:37:22 n/a n/a 00:16:42 00:01:10 00:19:30
28 Maryna Sokolova 1995 UKR 72 00:37:49 n/a n/a 00:15:01 00:01:19 00:21:30
29 Karyna Yevtushenko 1996 UKR 101 00:38:03 n/a n/a 00:16:46 00:01:31 00:19:47
30 Nina Mandl 1990 SLO 75 00:38:11 n/a n/a 00:15:05 00:01:18 00:21:49
31 Baiba Medne 1990 LAT 83 00:38:51 n/a n/a 00:16:58 00:01:22 00:20:32
32 Helena Netto Cirelli 1992 BRA 78 00:39:01 n/a n/a 00:16:42 00:01:33 00:20:47
33 Kim Groeneveld 2001 NED 121 00:39:40 n/a n/a 00:16:39 00:01:22 00:21:39
34 Daria Berezhna 2003 UKR 117 00:42:18 n/a n/a 00:19:02 00:01:17 00:22:00
35 Martta Kytomaki 1995 AUS 76 00:43:30 n/a n/a 00:19:37 00:01:31 00:22:23
DNF Nicole Walters 1989 GBR 79 DNF n/a n/a 00:16:01 00:01:39 00:00:00
Program notes:

Technical Delegate: Kalle Jensen/NOR. Race Referee: Vicky Lundine/CAN. Competition Jury: Kalle Jensen/NOR, Johanne Suss-Burkell/FRA, Francisco Villanova/ESP.
Distances: Swim 1000 m (1 lap); Run 5 km (2 laps)
Water temperature:14.4ºC. Air Temperature 21.6ºC. Wetsuit swim.
Athlete #76 Kytomaki/AUS served 10 seconds penalty during the run course.